Hovedside
METAR-TAF:

METAR-TAF

Lufthavner :

Ljungbyhed, Sverige

breddegrad: 56-04N, lengdegrad: 013-12E, høyde over havet: 43 m

Gjeldene værobservasjon

Denne rapporten ble laget for 13 minutter siden, klokken 01:20 UTC
Vind 8 kt fra Nord-nordvest
Temperatur 3°C
Luftfuktighet 87%
Trykk 1007 hPa
Sikt 10 km eller mer

METAR: ESTL 110120Z AUTO 33008KT 9999 FEW018/// BKN020/// BKN025/// 03/01 Q1007

Tid: 02:33 (01:33 UTC)


TAF: fraværende

Værobservasjoner og værvarsel for over 4000 flyplasser (METAR- og TAF-rapporter).

Tilgjengelige stasjoner er representert av de røde og gule prikkene på kartet.

Hold musepekeren over prikken for å se navnet på stasjonen.

Klikk så for å se værobservasjoner og -varsler.

For å forandre kartet kan du klikke på den grønne knappen med svart kryss for å zoome inn, på den grønne knappen med strek for å zoome ut, eller på de grønne pilene for å se tilstøtende kart.


METAR-TAF: